• Join FlightAware (Why Join?)
  • Login
  • US Flag 
05:37PM EDT


 

Airport Tracker/Info


-or-


 

Live Flight TrackerFlight Track Log ✈ DAL1562 ✈ 30-Aug-2013 ✈ KATL - CYYZ

Flight Track Log - Related Links

Times and Time Zones

All times are in EDT time to prevent confusion due to time zone crossing. See the DAL1562 flight status page for this flight to view local times or setup timezone preferences in your user account.

Time Position Orientation Groundspeed Altitude Reporting Facility
EDT Latitude Longitude Course Direction KTS MPH feet Rate Location/Type
05:44PM 33.6500 -84.3500 11° North 201 231 2,600  Level Atlanta TRACON
05:45PM 33.6667 -84.2833 73° East 265 305 4,000 2,160 Climbing Atlanta TRACON
05:46PM 33.6833 -84.2000 76° East 289 333 6,800 2,700 Climbing Atlanta TRACON
05:47PM 33.9474 -84.2667 North  Level FlightAware Approximate
05:47PM 33.7667 -84.1833 North 286 329 9,400  Level Atlanta TRACON
05:48PM 34.0744 -84.2667 North  Level FlightAware Approximate
05:49PM 34.2014 -84.2667 North  Level FlightAware Approximate
05:49PM 33.9444 -84.2692 338° Northwest 312 359 11,500  Level Atlanta Center
05:50PM 34.3276 -84.2561 11° North  Level FlightAware Approximate
05:50PM 34.0508 -84.2769 357° North 356 410 13,700  Level Atlanta Center
05:51PM 34.1633 -84.2797 359° North 388 447 15,700 2,100 Climbing Atlanta Center
05:52PM 34.2803 -84.2825 359° North 407 468 18,000 1,740 Climbing Atlanta Center
05:53PM 34.3825 -84.2603 10° North 407 468 19,200 1,500 Climbing Atlanta Center
05:54PM 34.5036 -84.2328 11° North 426 490 21,100 1,620 Climbing Atlanta Center
05:55PM 34.6206 -84.2028 12° North 436 502 22,500 1,380 Climbing Atlanta Center
05:56PM 34.7522 -84.1728 11° North 436 502 23,900 1,320 Climbing Atlanta Center
05:57PM 34.8733 -84.1197 20° North 436 502 25,200 1,260 Climbing Atlanta Center
05:58PM 34.9797 -84.0361 33° Northeast 442 509 26,500 1,440 Climbing Atlanta Center
05:59PM 35.0736 -83.9322 42° Northeast 453 521 28,100 1,260 Climbing Atlanta Center
06:00PM 35.1611 -83.8153 48° Northeast 448 516 29,100 1,080 Climbing Atlanta Center
06:01PM 35.2525 -83.7081 44° Northeast 448 516 30,300 1,080 Climbing Atlanta Center
06:02PM 35.3567 -83.6186 35° Northeast 448 516 31,300 840 Climbing Atlanta Center
06:03PM 35.4733 -83.5797 15° North 432 497 32,000 720 Climbing Atlanta Center
06:04PM 35.5964 -83.5611 North 432 497 32,800 480 Climbing Atlanta Center
06:05PM 35.7194 -83.5478 North 432 497 33,000 60 Climbing Atlanta Center
06:06PM 35.8425 -83.5342 North 438 504 33,000  Level Atlanta Center
06:07PM 35.9675 -83.5206 North 444 511 33,000  Level Atlanta Center
06:08PM 36.0883 -83.5069 North 444 511 33,000  Level Atlanta Center
06:09PM 36.1889 -83.4903 North 453 521 33,000  Level Indianapolis Center
06:10PM 36.3325 -83.4706 North 445 512 33,000  Level Indianapolis Center
06:11PM 36.4578 -83.4547 North 447 514 33,000  Level Indianapolis Center
06:12PM 36.5861 -83.4367 North 458 527 33,000  Level Indianapolis Center
06:13PM 36.7061 -83.3856 19° North 467 537 33,000  Level Indianapolis Center
06:15PM 36.8197 -83.3103 28° Northeast 460 529 33,000  Level Indianapolis Center
06:16PM 36.9347 -83.2381 27° Northeast 460 529 33,000  Level Indianapolis Center
06:17PM 37.0500 -83.1636 27° Northeast 460 529 33,000  Level Indianapolis Center
06:18PM 37.1658 -83.0883 27° Northeast 463 533 33,000  Level Indianapolis Center
06:19PM 37.3000 -83.0008 27° Northeast 461 531 33,000  Level Indianapolis Center
06:20PM 37.4150 -82.9256 27° Northeast 464 534 33,000  Level Indianapolis Center
06:21PM 37.5292 -82.8511 27° Northeast 462 532 33,000  Level Indianapolis Center
06:22PM 37.6439 -82.7733 28° Northeast 465 535 33,000  Level Indianapolis Center
06:23PM 37.7569 -82.6981 28° Northeast 460 529 33,000  Level Indianapolis Center
06:24PM 37.8894 -82.6092 28° Northeast 460 529 33,000  Level Indianapolis Center
06:25PM 38.0042 -82.5331 28° Northeast 462 532 33,000  Level Indianapolis Center
06:26PM 38.1125 -82.4603 28° Northeast 460 529 33,000  Level Indianapolis Center
06:27PM 38.2256 -82.3825 28° Northeast 460 529 33,000  Level Indianapolis Center
06:28PM 38.3411 -82.3089 27° Northeast 462 532 33,000  Level Indianapolis Center
06:29PM 38.4556 -82.2319 28° Northeast 462 532 33,000  Level Indianapolis Center
06:30PM 38.5919 -82.1400 28° Northeast 459 528 33,000  Level Indianapolis Center
06:31PM 38.7047 -82.0617 28° Northeast 459 528 33,000  Level Indianapolis Center
06:32PM 38.8133 -81.9728 33° Northeast 460 529 33,000  Level Indianapolis Center
06:33PM 38.9172 -81.8744 36° Northeast 458 527 33,000  Level Indianapolis Center
06:34PM 39.0219 -81.7733 37° Northeast 464 534 33,000  Level Indianapolis Center
06:35PM 39.1269 -81.6742 36° Northeast 464 534 33,000  Level Indianapolis Center
06:36PM 39.2317 -81.5736 37° Northeast 468 539 33,000  Level Indianapolis Center
06:37PM 39.3356 -81.4744 36° Northeast 463 533 33,000  Level Indianapolis Center
06:38PM 39.4606 -81.3547 36° Northeast 464 534 33,000  Level Indianapolis Center
06:39PM 39.5689 -81.2642 33° Northeast 464 534 33,000  Level Indianapolis Center
06:40PM 39.6847 -81.1917 26° Northeast 461 531 33,000  Level Indianapolis Center
06:41PM 39.7989 -81.1178 26° Northeast 458 527 33,000  Level Indianapolis Center
06:42PM 39.9131 -81.0417 27° Northeast 459 528 33,000  Level Indianapolis Center
06:43PM 40.0414 -80.9558 27° Northeast 460 529 33,000  Level Indianapolis Center
06:45PM 40.1561 -80.8781 27° Northeast 460 529 33,000  Level Indianapolis Center
06:46PM 40.2753 -80.7981 27° Northeast 452 520 33,000  Level Cleveland Center
06:47PM 40.3903 -80.7247 26° Northeast 452 520 33,000  Level Cleveland Center
06:48PM 40.5050 -80.6486 27° Northeast 452 520 33,000  Level Cleveland Center
06:49PM 40.6156 -80.5750 27° Northeast 452 520 33,000  Level Cleveland Center
06:50PM 40.7322 -80.4956 27° Northeast 455 524 33,000  Level Cleveland Center
06:51PM 40.8467 -80.4158 28° Northeast 455 524 33,000 -300 Level Cleveland Center
06:52PM 40.9611 -80.3411 26° Northeast 455 524 32,400 -540 Descending Cleveland Center
06:53PM 41.0756 -80.2636 27° Northeast 455 524 32,000 -240 Descending Cleveland Center
06:54PM 41.1922 -80.1831 27° Northeast 455 524 32,000  Level Cleveland Center
06:55PM 41.3067 -80.1050 27° Northeast 455 524 32,000  Level Cleveland Center
06:56PM 41.4208 -80.0267 27° Northeast 455 524 32,000  Level Cleveland Center
06:57PM 41.5433 -79.9422 27° Northeast 449 517 32,000  Level Cleveland Center
06:58PM 41.6575 -79.8633 27° Northeast 449 517 32,000 -240 Level Cleveland Center
06:59PM 41.7758 -79.7783 28° Northeast 459 528 31,600 -900 Descending Cleveland Center
07:00PM 41.8878 -79.7019 27° Northeast 452 520 30,300 -1,740 Descending Cleveland Center
07:01PM 41.9997 -79.6192 29° Northeast 443 510 28,200 -1,200 Descending Cleveland Center
07:02PM 42.1136 -79.5419 27° Northeast 448 516 28,000 -900 Descending Cleveland Center
07:03PM 42.2275 -79.4589 28° Northeast 448 516 26,400 -1,920 Descending Cleveland Center
07:04PM 42.3414 -79.3781 28° Northeast 454 522 24,200 -2,160 Descending Cleveland Center
07:05PM 42.4511 -79.3000 28° Northeast 449 517 22,100 -1,980 Descending Cleveland Center
07:06PM 42.5550 -79.2725 11° North 442 509 20,300 -2,400 Descending Cleveland Center
07:07PM 42.6633 -79.2844 355° North 410 472 17,400 -2,160 Descending Cleveland Center
07:08PM 42.7742 -79.2992 354° North 398 458 16,000 -720 Descending Cleveland Center
07:09PM 42.8806 -79.3083 356° North 398 458 16,000  Level Cleveland Center
07:09PM 42.9500 -79.2833 15° North 390 449 16,000 -1,320 Level Toronto Center
07:10PM 43.0500 -79.3167 346° North 390 449 14,000 -2,040 Descending Toronto Center
07:11PM 43.1500 -79.3167 360° North 380 437 12,000 -1,020 Descending Toronto Center
07:12PM 43.2500 -79.3333 353° North 360 414 12,000  Level Toronto Center
07:13PM 43.3333 -79.3500 352° North 300 345 12,000 -540 Level Toronto Center
07:14PM 43.4000 -79.4000 331° Northwest 280 322 11,000 -1,680 Descending Toronto Center
07:15PM 43.4667 -79.4500 331° Northwest 270 311 8,700 -1,500 Descending Toronto Center
07:16PM 43.5333 -79.5000 331° Northwest 270 311 8,000 -900 Descending Toronto Center
07:17PM 43.6000 -79.5167 350° North 280 322 6,900 -1,320 Descending Toronto Center
07:18PM 43.6667 -79.4333 42° Northeast 300 345 5,400 -1,200 Descending Toronto Center
07:19PM 43.7167 -79.3500 50° Northeast 270 311 4,500 -780 Descending Toronto Center
07:20PM 43.7667 -79.3500 360° North 210 242 3,900 -780 Descending Toronto Center
07:21PM 43.7667 -79.4333 270° West 180 207 3,000 -600 Descending Toronto Center
07:22PM 43.7333 -79.4667 216° Southwest 160 184 2,700 -600 Descending Toronto Center
07:23PM 43.7167 -79.5167 245° Southwest 160 184 1,900 -780 Descending Toronto Center
07:24PM 43.6833 -79.5333 200° South 140 161 1,200 -720 Descending Toronto Center
07:25PM 43.6667 -79.5833 245° Southwest 140 161 500 -720 Descending Toronto Center